createdAt,value
2018-05-25T00:02:11.502Z,5.40
2018-05-25T00:04:38.173Z,5.50
2018-05-25T00:07:07.927Z,5.23
2018-05-25T00:09:34.714Z,5.20
2018-05-25T00:12:01.455Z,5.40
2018-05-25T00:14:28.159Z,5.17
2018-05-25T00:16:58.794Z,4.93
2018-05-25T00:19:25.802Z,5.23
2018-05-25T00:21:52.790Z,5.63
2018-05-25T00:24:19.537Z,5.43
2018-05-25T00:26:53.809Z,5.23
2018-05-25T00:29:20.684Z,4.80
2018-05-25T00:31:47.266Z,4.47
2018-05-25T00:34:13.922Z,4.73
2018-05-25T00:36:43.941Z,4.90
2018-05-25T00:39:10.588Z,5.07
2018-05-25T00:41:37.240Z,4.80
2018-05-25T00:44:03.903Z,4.77
2018-05-25T00:46:33.637Z,5.00
2018-05-25T00:49:00.469Z,5.07
2018-05-25T00:51:27.393Z,4.93
2018-05-25T00:53:54.047Z,6.07
2018-05-25T00:56:20.926Z,6.50
2018-05-25T00:58:47.673Z,5.80
2018-05-25T01:01:14.499Z,6.97
2018-05-25T01:03:41.165Z,7.87
2018-05-25T01:06:14.479Z,7.77
2018-05-25T01:08:41.200Z,7.73
2018-05-25T01:11:07.881Z,9.10
2018-05-25T01:13:34.393Z,9.23
2018-05-25T01:16:08.556Z,7.57
2018-05-25T01:18:35.327Z,7.93
2018-05-25T01:21:01.965Z,8.43
2018-05-25T01:23:28.707Z,7.53
2018-05-25T01:25:56.669Z,7.70
2018-05-25T01:28:23.325Z,7.33
2018-05-25T01:30:50.077Z,6.50
2018-05-25T01:33:17.296Z,6.70
2018-05-25T01:35:44.030Z,6.50
2018-05-25T01:38:11.134Z,6.67
2018-05-25T01:40:38.241Z,6.13
2018-05-25T01:43:05.011Z,6.40
2018-05-25T01:45:32.629Z,5.90
2018-05-25T01:47:59.495Z,5.60
2018-05-25T01:50:26.216Z,6.10
2018-05-25T01:52:52.953Z,5.47
2018-05-25T01:55:37.832Z,6.03
2018-05-25T01:58:04.625Z,5.43
2018-05-25T02:00:31.214Z,6.03
2018-05-25T02:02:57.897Z,5.60
2018-05-25T02:05:28.823Z,5.87
2018-05-25T02:07:55.401Z,5.30
2018-05-25T02:10:22.128Z,6.13
2018-05-25T02:12:48.926Z,5.47
2018-05-25T02:15:23.285Z,5.70
2018-05-25T02:17:50.027Z,5.83
2018-05-25T02:20:17.111Z,5.97
2018-05-25T02:22:43.885Z,5.70
2018-05-25T02:25:14.125Z,5.83
2018-05-25T02:27:40.843Z,7.20
2018-05-25T02:30:07.445Z,6.87
2018-05-25T02:32:33.940Z,5.80
2018-05-25T02:35:03.809Z,6.50
2018-05-25T02:37:30.874Z,6.33
2018-05-25T02:39:57.581Z,6.30
2018-05-25T02:42:24.347Z,6.20
2018-05-25T02:44:51.091Z,5.73
2018-05-25T02:47:17.599Z,5.83
2018-05-25T02:49:44.273Z,6.37
2018-05-25T02:52:10.954Z,6.00
2018-05-25T02:54:37.682Z,5.70
2018-05-25T02:57:04.464Z,4.67
2018-05-25T02:59:31.094Z,4.90
2018-05-25T03:01:57.709Z,5.63
2018-05-25T03:04:24.293Z,6.77
2018-05-25T03:06:51.385Z,6.50
2018-05-25T03:09:18.088Z,6.30
2018-05-25T03:11:44.763Z,6.07
2018-05-25T03:14:11.329Z,5.93
2018-05-25T03:16:38.089Z,5.30
2018-05-25T03:19:04.607Z,5.70
2018-05-25T03:21:31.290Z,5.83
2018-05-25T03:23:58.201Z,5.73
2018-05-25T03:26:25.379Z,6.30
2018-05-25T03:28:52.182Z,6.10
2018-05-25T03:31:18.986Z,5.70
2018-05-25T03:33:45.673Z,5.10
2018-05-25T03:36:12.581Z,5.70
2018-05-25T03:38:39.310Z,6.73
2018-05-25T03:41:06.047Z,7.77
2018-05-25T03:43:32.657Z,8.70
2018-05-25T03:46:06.480Z,8.80
2018-05-25T03:48:33.552Z,9.07
2018-05-25T03:51:00.549Z,9.43
2018-05-25T03:53:27.228Z,8.50
2018-05-25T03:55:56.887Z,9.00
2018-05-25T03:58:35.684Z,9.60
2018-05-25T04:01:14.701Z,9.77
2018-05-25T04:03:41.618Z,10.33
2018-05-25T04:06:08.547Z,9.70
2018-05-25T04:08:35.273Z,9.07
2018-05-25T04:11:01.905Z,9.30
2018-05-25T04:13:28.535Z,8.37
2018-05-25T04:15:56.161Z,8.37
2018-05-25T04:18:22.896Z,8.53
2018-05-25T04:20:49.653Z,8.53
2018-05-25T04:23:16.242Z,8.20
2018-05-25T04:26:00.396Z,8.60
2018-05-25T04:28:27.086Z,8.60
2018-05-25T04:30:53.689Z,7.80
2018-05-25T04:33:20.371Z,8.20
2018-05-25T04:35:57.801Z,6.37
2018-05-25T04:38:24.610Z,6.13
2018-05-25T04:40:51.621Z,6.27
2018-05-25T04:43:18.594Z,6.63
2018-05-25T04:45:57.729Z,8.03
2018-05-25T04:48:24.365Z,5.17
2018-05-25T04:50:51.086Z,5.33
2018-05-25T04:53:17.793Z,5.27
2018-05-25T04:55:44.688Z,5.47
2018-05-25T04:58:11.445Z,5.27
2018-05-25T05:00:38.469Z,5.57
2018-05-25T05:03:05.744Z,6.30
2018-05-25T05:05:32.870Z,6.53
2018-05-25T05:07:59.601Z,6.93
2018-05-25T05:10:26.494Z,6.43
2018-05-25T05:12:53.478Z,5.77
2018-05-25T05:15:20.420Z,5.40
2018-05-25T05:17:47.225Z,5.60
2018-05-25T05:20:14.061Z,5.87
2018-05-25T05:22:40.670Z,5.77
2018-05-25T05:25:07.525Z,5.33
2018-05-25T05:27:34.273Z,5.30
2018-05-25T05:30:01.113Z,4.63
2018-05-25T05:32:27.821Z,5.47
2018-05-25T05:34:59.923Z,5.83
2018-05-25T05:37:26.587Z,6.37
2018-05-25T05:39:53.265Z,5.77
2018-05-25T05:42:20.436Z,6.53
2018-05-25T05:44:50.780Z,6.50
2018-05-25T05:47:17.440Z,5.93
2018-05-25T05:49:45.650Z,5.50
2018-05-25T05:52:12.350Z,6.30
2018-05-25T05:54:43.730Z,5.63
2018-05-25T05:57:10.421Z,5.67
2018-05-25T05:59:37.121Z,6.20
2018-05-25T06:02:03.921Z,5.87
2018-05-25T06:04:32.606Z,6.20
2018-05-25T06:06:59.345Z,6.57
2018-05-25T06:09:26.111Z,5.97
2018-05-25T06:11:52.942Z,6.13
2018-05-25T06:14:19.766Z,5.70
2018-05-25T06:16:46.838Z,5.63
2018-05-25T06:19:13.581Z,5.93
2018-05-25T06:21:40.313Z,5.93
2018-05-25T06:24:07.025Z,7.17
2018-05-25T06:26:37.377Z,6.80
2018-05-25T06:29:05.388Z,7.20
2018-05-25T06:31:32.090Z,6.97
2018-05-25T06:33:58.846Z,7.97
2018-05-25T06:36:26.693Z,8.00
2018-05-25T06:38:53.413Z,8.73
2018-05-25T06:41:20.133Z,8.53
2018-05-25T06:43:46.794Z,9.67
2018-05-25T06:46:14.502Z,10.73
2018-05-25T06:48:41.226Z,9.93
2018-05-25T06:51:07.958Z,10.67
2018-05-25T06:53:34.715Z,12.90
2018-05-25T06:56:06.606Z,12.17
2018-05-25T06:58:33.278Z,10.77
2018-05-25T07:00:59.987Z,11.77
2018-05-25T07:03:26.753Z,12.17
2018-05-25T07:05:56.593Z,11.93
2018-05-25T07:08:23.194Z,12.30
2018-05-25T07:10:49.952Z,12.87
2018-05-25T07:13:16.670Z,12.57
2018-05-25T07:15:44.521Z,11.63
2018-05-25T07:18:11.266Z,9.00
2018-05-25T07:20:38.056Z,9.50
2018-05-25T07:23:04.657Z,9.13
2018-05-25T07:25:35.146Z,8.80
2018-05-25T07:28:01.888Z,8.40
2018-05-25T07:30:28.773Z,8.27
2018-05-25T07:32:55.686Z,7.67
2018-05-25T07:35:26.218Z,7.53
2018-05-25T07:37:52.810Z,7.77
2018-05-25T07:40:19.413Z,7.47
2018-05-25T07:42:47.292Z,6.90
2018-05-25T07:45:15.530Z,7.70
2018-05-25T07:47:42.237Z,7.23
2018-05-25T07:50:09.295Z,7.07
2018-05-25T07:52:36.481Z,7.20
2018-05-25T07:55:04.673Z,7.43
2018-05-25T07:57:32.558Z,6.73
2018-05-25T07:59:59.189Z,7.83
2018-05-25T08:02:25.918Z,6.67
2018-05-25T08:04:59.195Z,6.87
2018-05-25T08:07:25.824Z,7.67
2018-05-25T08:09:52.413Z,7.30
2018-05-25T08:12:19.376Z,7.43
2018-05-25T08:14:47.172Z,7.23
2018-05-25T08:17:14.036Z,6.97
2018-05-25T08:19:41.469Z,6.80
2018-05-25T08:22:08.480Z,7.13
2018-05-25T08:24:36.371Z,6.93
2018-05-25T08:27:03.051Z,6.30
2018-05-25T08:29:29.769Z,7.20
2018-05-25T08:31:57.078Z,6.40
2018-05-25T08:34:23.945Z,5.90
2018-05-25T08:36:50.674Z,6.87
2018-05-25T08:39:17.294Z,7.13
2018-05-25T08:41:43.962Z,7.20
2018-05-25T08:44:18.343Z,6.73
2018-05-25T08:46:45.017Z,6.30
2018-05-25T08:49:11.648Z,6.87
2018-05-25T08:51:38.684Z,6.20
2018-05-25T08:54:08.895Z,6.67
2018-05-25T08:56:35.485Z,6.40
2018-05-25T08:59:02.189Z,6.87
2018-05-25T09:01:28.934Z,6.77
2018-05-25T09:03:55.983Z,6.57
2018-05-25T09:06:22.604Z,7.37
2018-05-25T09:08:49.294Z,6.57
2018-05-25T09:11:16.277Z,6.73
2018-05-25T09:13:43.020Z,6.50
2018-05-25T09:16:09.761Z,6.50
2018-05-25T09:18:36.298Z,7.33
2018-05-25T09:21:02.913Z,6.37
2018-05-25T09:23:29.565Z,6.47
2018-05-25T09:26:01.929Z,6.60
2018-05-25T09:28:28.727Z,6.40
2018-05-25T09:30:55.478Z,6.27
2018-05-25T09:33:22.391Z,7.30
2018-05-25T09:35:57.681Z,6.90
2018-05-25T09:38:24.457Z,7.57
2018-05-25T09:40:51.272Z,7.17
2018-05-25T09:43:17.982Z,7.37
2018-05-25T09:45:44.781Z,7.23
2018-05-25T09:48:11.435Z,7.80
2018-05-25T09:50:38.142Z,7.57
2018-05-25T09:53:04.734Z,7.27
2018-05-25T09:55:35.637Z,6.90
2018-05-25T09:58:02.381Z,8.10
2018-05-25T10:00:29.061Z,8.57
2018-05-25T10:02:55.829Z,7.37
2018-05-25T10:05:29.260Z,7.75
2018-05-25T10:07:55.821Z,7.95
2018-05-25T10:10:22.534Z,7.82
2018-05-25T10:12:49.116Z,7.40
2018-05-25T10:15:26.501Z,7.07
2018-05-25T10:17:53.383Z,7.18
2018-05-25T10:20:20.150Z,7.22
2018-05-25T10:22:46.864Z,7.37
2018-05-25T10:25:19.638Z,7.07
2018-05-25T10:27:46.919Z,7.50
2018-05-25T10:30:14.196Z,7.95
2018-05-25T10:32:40.956Z,7.43
2018-05-25T10:35:12.918Z,7.70
2018-05-25T10:37:39.901Z,8.10
2018-05-25T10:40:06.779Z,7.75
2018-05-25T10:42:33.794Z,7.10
2018-05-25T10:45:11.173Z,7.45
2018-05-25T10:47:37.786Z,6.80
2018-05-25T10:50:04.529Z,7.47
2018-05-25T10:52:31.233Z,7.07
2018-05-25T10:54:58.840Z,7.47
2018-05-25T10:57:25.525Z,7.65
2018-05-25T10:59:52.195Z,7.20
2018-05-25T11:02:19.266Z,6.55
2018-05-25T11:04:49.062Z,7.10
2018-05-25T11:07:15.974Z,7.30
2018-05-25T11:09:42.622Z,6.82
2018-05-25T11:12:09.616Z,7.05
2018-05-25T11:14:40.098Z,6.75
2018-05-25T11:17:06.906Z,7.03
2018-05-25T11:19:34.260Z,6.75
2018-05-25T11:22:00.947Z,6.53
2018-05-25T11:24:31.190Z,7.07
2018-05-25T11:26:57.971Z,6.80
2018-05-25T11:29:25.130Z,7.30
2018-05-25T11:31:51.777Z,6.60
2018-05-25T11:34:18.750Z,6.85
2018-05-25T11:36:45.561Z,6.90
2018-05-25T11:39:12.307Z,7.07
2018-05-25T11:41:39.357Z,6.78
2018-05-25T11:44:09.107Z,7.45
2018-05-25T11:46:36.840Z,7.25
2018-05-25T11:49:03.773Z,6.65
2018-05-25T11:51:31.240Z,6.05
2018-05-25T11:54:09.822Z,6.70
2018-05-25T11:56:36.851Z,7.10
2018-05-25T12:01:53.310Z,6.72
2018-05-25T12:04:20.962Z,6.68
2018-05-25T12:06:47.646Z,6.50
2018-05-25T12:09:14.442Z,6.35
2018-05-25T12:11:41.266Z,6.25
2018-05-25T12:14:09.539Z,6.47
2018-05-25T12:16:36.247Z,7.10
2018-05-25T12:19:03.456Z,6.22
2018-05-25T12:21:30.404Z,6.78
2018-05-25T12:23:58.269Z,6.60
2018-05-25T12:26:25.716Z,5.87
2018-05-25T12:28:52.397Z,6.32
2018-05-25T12:31:19.017Z,6.75
2018-05-25T12:33:47.260Z,6.10
2018-05-25T12:36:14.398Z,6.75
2018-05-25T12:38:41.338Z,6.95
2018-05-25T12:41:08.547Z,5.90
2018-05-25T12:43:38.945Z,6.03
2018-05-25T12:46:06.181Z,6.00
2018-05-25T12:48:33.693Z,6.78
2018-05-25T12:51:00.494Z,6.70
2018-05-25T12:53:28.713Z,6.10
2018-05-25T12:55:55.184Z,6.43
2018-05-25T12:58:21.925Z,6.00
2018-05-25T13:00:48.968Z,6.20
2018-05-25T13:03:19.842Z,6.28
2018-05-25T13:05:46.529Z,6.82
2018-05-25T13:08:13.393Z,6.07
2018-05-25T13:10:41.157Z,5.90
2018-05-25T13:13:07.925Z,5.65
2018-05-25T13:15:34.488Z,6.12
2018-05-25T13:18:00.988Z,6.50
2018-05-25T13:20:29.141Z,6.20
2018-05-25T13:22:56.377Z,6.65
2018-05-25T13:25:23.797Z,7.00
2018-05-25T13:27:51.264Z,6.32
2018-05-25T13:30:17.876Z,6.07
2018-05-25T13:32:44.672Z,6.55
2018-05-25T13:35:13.124Z,5.93
2018-05-25T13:37:39.917Z,7.05
2018-05-25T13:40:07.095Z,6.95
2018-05-25T13:42:33.947Z,6.90
2018-05-25T13:48:07.140Z,6.82
2018-05-25T13:50:34.231Z,6.75
2018-05-25T13:53:01.008Z,6.35
2018-05-25T13:55:27.847Z,6.85
2018-05-25T13:57:54.665Z,6.28
2018-05-25T14:00:21.485Z,6.47
2018-05-25T14:02:48.221Z,6.25
2018-05-25T14:05:14.988Z,6.32
2018-05-25T14:07:41.811Z,5.82
2018-05-25T14:10:08.433Z,6.50
2018-05-25T14:12:35.077Z,6.32
2018-05-25T14:15:02.775Z,6.85
2018-05-25T14:17:29.592Z,6.45
2018-05-25T14:19:56.137Z,7.05
2018-05-25T14:22:22.765Z,6.53
2018-05-25T14:24:49.657Z,6.45
2018-05-25T14:27:16.593Z,6.80
2018-05-25T14:29:43.290Z,6.80
2018-05-25T14:32:09.898Z,6.53
2018-05-25T14:34:37.841Z,6.80
2018-05-25T14:37:04.336Z,6.28
2018-05-25T14:39:30.997Z,6.90
2018-05-25T14:41:57.667Z,6.90
2018-05-25T14:44:27.781Z,6.15
2018-05-25T14:46:54.755Z,7.90
2018-05-25T14:49:21.457Z,7.60
2018-05-25T14:51:48.289Z,7.55
2018-05-25T14:54:18.862Z,6.68
2018-05-25T14:56:46.458Z,7.10
2018-05-25T14:59:13.297Z,7.90
2018-05-25T15:01:40.260Z,7.78
2018-05-25T15:04:08.170Z,9.05
2018-05-25T15:06:35.421Z,8.20
2018-05-25T15:09:02.013Z,7.25
2018-05-25T15:11:28.722Z,7.87
2018-05-25T15:13:55.552Z,7.18
2018-05-25T15:16:23.293Z,7.10
2018-05-25T15:18:50.176Z,7.43
2018-05-25T15:21:16.838Z,7.20
2018-05-25T15:23:44.531Z,6.80
2018-05-25T15:26:11.178Z,7.10
2018-05-25T15:28:39.064Z,7.10
2018-05-25T15:31:05.848Z,7.00
2018-05-25T15:33:39.014Z,6.97
2018-05-25T15:36:05.757Z,6.78
2018-05-25T15:38:32.173Z,6.53
2018-05-25T15:40:58.814Z,6.57
2018-05-25T15:43:29.061Z,7.35
2018-05-25T15:45:55.693Z,7.18
2018-05-25T15:48:22.205Z,7.45
2018-05-25T15:50:48.806Z,8.05
2018-05-25T15:53:22.937Z,7.05
2018-05-25T15:55:49.537Z,7.00
2018-05-25T15:58:16.066Z,6.35
2018-05-25T16:00:42.765Z,6.23
2018-05-25T16:03:13.169Z,6.33
2018-05-25T16:05:39.682Z,5.50
2018-05-25T16:08:07.079Z,5.33
2018-05-25T16:10:33.680Z,6.37
2018-05-25T16:13:03.920Z,6.27
2018-05-25T16:15:30.457Z,5.93
2018-05-25T16:17:57.114Z,5.40
2018-05-25T16:20:24.426Z,7.57
2018-05-25T16:22:54.747Z,6.00
2018-05-25T16:25:21.730Z,5.37
2018-05-25T16:27:48.313Z,5.22
2018-05-25T16:30:15.316Z,5.15
2018-05-25T16:32:41.916Z,4.47
2018-05-25T16:35:08.754Z,4.40
2018-05-25T16:37:35.421Z,3.95
2018-05-25T16:40:02.037Z,4.93
2018-05-25T16:42:28.673Z,4.50
2018-05-25T16:45:01.574Z,6.13
2018-05-25T16:47:28.080Z,6.70
2018-05-25T16:49:54.716Z,5.87
2018-05-25T16:52:21.396Z,6.60
2018-05-25T16:54:53.451Z,7.97
2018-05-25T16:57:20.633Z,9.27
2018-05-25T16:59:47.288Z,11.00
2018-05-25T17:02:13.939Z,8.83
2018-05-25T17:04:40.589Z,6.93
2018-05-25T17:07:07.241Z,5.20
2018-05-25T17:09:34.183Z,4.77
2018-05-25T17:12:00.764Z,4.40
2018-05-25T17:14:27.446Z,4.50
2018-05-25T17:16:54.168Z,4.90
2018-05-25T17:19:20.932Z,4.63
2018-05-25T17:21:47.674Z,5.63
2018-05-25T17:24:15.308Z,5.13
2018-05-25T17:26:41.904Z,5.17
2018-05-25T17:29:08.468Z,5.33
2018-05-25T17:31:36.441Z,6.00
2018-05-25T17:34:09.369Z,5.37
2018-05-25T17:36:36.468Z,5.57
2018-05-25T17:39:03.072Z,4.13
2018-05-25T17:41:29.734Z,4.20
2018-05-25T17:43:59.539Z,4.50
2018-05-25T17:46:26.197Z,4.63
2018-05-25T17:48:52.820Z,4.80
2018-05-25T17:51:19.478Z,4.80
2018-05-25T17:53:49.929Z,5.00
2018-05-25T17:56:16.609Z,5.40
2018-05-25T17:58:43.329Z,4.90
2018-05-25T18:01:09.810Z,4.73
2018-05-25T18:03:37.765Z,4.10
2018-05-25T18:06:05.377Z,3.97
2018-05-25T18:08:31.930Z,4.13
2018-05-25T18:10:58.620Z,4.40
2018-05-25T18:13:26.548Z,5.20
2018-05-25T18:15:53.015Z,5.10
2018-05-25T18:18:19.656Z,4.23
2018-05-25T18:20:46.239Z,4.77
2018-05-25T18:23:13.983Z,5.40
2018-05-25T18:25:40.546Z,5.60
2018-05-25T18:28:07.024Z,5.60
2018-05-25T18:30:33.754Z,5.77
2018-05-25T18:33:04.677Z,4.90
2018-05-25T18:35:31.259Z,5.20
2018-05-25T18:37:58.877Z,5.93
2018-05-25T18:40:25.479Z,5.93
2018-05-25T18:42:52.154Z,5.00
2018-05-25T18:45:18.690Z,4.97
2018-05-25T18:47:45.284Z,4.90
2018-05-25T18:50:11.972Z,4.53
2018-05-25T18:52:38.656Z,5.23
2018-05-25T18:55:05.702Z,4.87
2018-05-25T18:57:32.349Z,5.53
2018-05-25T18:59:58.810Z,4.93
2018-05-25T19:02:25.691Z,4.87
2018-05-25T19:04:52.379Z,5.50
2018-05-25T19:07:18.948Z,4.57
2018-05-25T19:09:46.473Z,4.90
2018-05-25T19:12:12.933Z,4.80
2018-05-25T19:14:42.957Z,4.63
2018-05-25T19:17:09.616Z,5.57
2018-05-25T19:19:36.148Z,5.23
2018-05-25T19:22:02.829Z,5.80
2018-05-25T19:24:33.282Z,5.50
2018-05-25T19:26:59.905Z,5.50
2018-05-25T19:29:26.509Z,5.67
2018-05-25T19:31:52.993Z,5.53
2018-05-25T19:34:20.826Z,6.27
2018-05-25T19:36:47.366Z,5.73
2018-05-25T19:39:14.004Z,5.93
2018-05-25T19:41:40.799Z,5.80
2018-05-25T19:44:07.635Z,5.37
2018-05-25T19:46:34.240Z,5.73
2018-05-25T19:49:01.069Z,5.57
2018-05-25T19:51:27.985Z,5.97
2018-05-25T19:53:55.103Z,5.47
2018-05-25T19:56:22.186Z,5.50
2018-05-25T19:58:48.741Z,6.00
2018-05-25T20:01:15.213Z,7.20
2018-05-25T20:03:42.080Z,8.20
2018-05-25T20:06:08.982Z,6.60
2018-05-25T20:08:35.597Z,7.47
2018-05-25T20:11:02.179Z,6.97
2018-05-25T20:13:28.861Z,6.83
2018-05-25T20:15:55.449Z,6.30
2018-05-25T20:18:22.111Z,6.00
2018-05-25T20:20:48.718Z,6.03
2018-05-25T20:23:19.180Z,7.00
2018-05-25T20:25:45.569Z,6.63
2018-05-25T20:28:12.173Z,5.77
2018-05-25T20:30:38.657Z,6.27
2018-05-25T20:33:06.405Z,6.33
2018-05-25T20:35:33.090Z,5.90
2018-05-25T20:37:59.773Z,6.30
2018-05-25T20:40:26.453Z,6.23
2018-05-25T20:42:56.929Z,5.67
2018-05-25T20:45:23.594Z,6.60
2018-05-25T20:47:50.187Z,6.37
2018-05-25T20:50:16.807Z,6.20
2018-05-25T20:52:43.645Z,6.73
2018-05-25T20:55:10.243Z,7.63
2018-05-25T20:57:36.859Z,6.80
2018-05-25T21:00:03.455Z,6.50
2018-05-25T21:02:33.993Z,6.03
2018-05-25T21:05:00.593Z,5.80
2018-05-25T21:07:27.213Z,5.47
2018-05-25T21:09:53.860Z,4.87
2018-05-25T21:12:25.028Z,5.63
2018-05-25T21:14:51.589Z,5.63
2018-05-25T21:17:18.789Z,5.50
2018-05-25T21:19:45.520Z,5.33
2018-05-25T21:22:12.614Z,5.47
2018-05-25T21:24:39.225Z,5.60
2018-05-25T21:27:05.750Z,5.53
2018-05-25T21:29:32.413Z,5.27
2018-05-25T21:31:59.626Z,5.20
2018-05-25T21:34:26.400Z,5.70
2018-05-25T21:36:53.030Z,4.80
2018-05-25T21:39:19.945Z,5.20
2018-05-25T21:41:46.619Z,5.20
2018-05-25T21:44:17.430Z,5.10
2018-05-25T21:46:44.120Z,5.10
2018-05-25T21:49:10.705Z,5.20
2018-05-25T21:51:37.440Z,5.17
2018-05-25T21:54:04.057Z,5.57
2018-05-25T21:56:30.733Z,5.23
2018-05-25T21:58:57.273Z,5.00
2018-05-25T22:01:23.835Z,4.93
2018-05-25T22:03:50.463Z,5.13
2018-05-25T22:06:17.085Z,5.70
2018-05-25T22:08:43.716Z,5.53
2018-05-25T22:11:10.252Z,6.27
2018-05-25T22:13:37.909Z,6.10
2018-05-25T22:16:04.502Z,6.27
2018-05-25T22:18:31.117Z,6.30
2018-05-25T22:20:58.261Z,5.60
2018-05-25T22:23:26.038Z,5.60
2018-05-25T22:25:52.761Z,5.67
2018-05-25T22:28:19.372Z,5.50
2018-05-25T22:30:45.927Z,4.93
2018-05-25T22:33:17.664Z,5.07
2018-05-25T22:35:44.561Z,4.60
2018-05-25T22:38:11.186Z,5.20
2018-05-25T22:40:37.698Z,5.20
2018-05-25T22:43:17.328Z,5.47
2018-05-25T22:46:02.049Z,5.20
2018-05-25T22:48:46.905Z,5.60
2018-05-25T22:51:32.050Z,5.63
2018-05-25T22:54:11.273Z,5.83
2018-05-25T22:56:38.047Z,6.17
2018-05-25T22:59:05.409Z,6.13
2018-05-25T23:01:32.610Z,6.40
2018-05-25T23:03:59.813Z,6.47
2018-05-25T23:06:26.418Z,6.97
2018-05-25T23:08:52.966Z,6.43
2018-05-25T23:11:19.572Z,7.30
2018-05-25T23:13:47.565Z,6.97
2018-05-25T23:16:14.265Z,7.47
2018-05-25T23:18:40.945Z,7.60
2018-05-25T23:21:07.871Z,7.67
2018-05-25T23:23:34.587Z,8.80
2018-05-25T23:26:01.294Z,8.30
2018-05-25T23:28:27.921Z,8.50
2018-05-25T23:30:54.691Z,8.73
2018-05-25T23:33:25.357Z,8.83
2018-05-25T23:35:52.021Z,9.40
2018-05-25T23:38:18.736Z,9.57
2018-05-25T23:40:45.407Z,10.03
2018-05-25T23:43:13.498Z,10.17
2018-05-25T23:45:40.019Z,9.97
2018-05-25T23:48:06.735Z,10.37
2018-05-25T23:50:33.408Z,10.93
2018-05-25T23:53:00.197Z,10.20
2018-05-25T23:55:26.900Z,11.13
2018-05-25T23:57:53.639Z,11.53
